PWSweather.com
Personal Weather Stations
Station Observations
KCOGRAND2
Redlands, Southcamp Road & Dakota Circle, Grand Junction, CO 81507

Redlands, Southcamp Road & Dakota CircleGrand Junction, CO 81507

Lat: 39.055, Lon: -108.637

Elevation: 4870

Station Type: RadioShack WX200

High Low Average
Temperature 101.3°F38.5°C 66.0°F18.9°C 85.5°F29.7°C
Dew Point 30.4°F-0.9°C 13.5°F-10.3°C 26.9°F-2.8°C
Winds 14.0 mph 22.5 kmh Calm Calm 5.0 mph E8.0 kmh E
Wind Gusts 24.2 mph38.9 kmh -- 9.0 mph14.5 kmh
Humidity 26% 12% 22%
Pressure 25.10 in850.0 mb 24.92 in843.9 mb -
Precipitation 0.00 in0.0 mm - -
Hour Temp Dew Point Humidity Winds Wind Gusts Pressure Precip Precip Rate Daily Precip Total
12:02 AM 80.8°F27.1°C -5537.2°C - 3.0 mph E4.8 kmh E 4.5 mph7.2 kmh 25.07 in849.0 mb 0.00 in0.0 mm 0.00 in0.0 mm 0.00 in0.0 mm
12:07 AM 80.8°F27.1°C -5537.2°C - 2.0 mph E3.2 kmh E 6.3 mph10.1 kmh 25.07 in849.0 mb 0.00 in0.0 mm 0.00 in0.0 mm 0.00 in0.0 mm
12:12 AM 81.0°F27.2°C -5537.2°C - 2.0 mph E3.2 kmh E 6.3 mph10.1 kmh 25.07 in849.0 mb 0.00 in0.0 mm 0.00 in0.0 mm 0.00 in0.0 mm
12:17 AM 81.0°F27.2°C -5537.2°C - 3.0 mph E4.8 kmh E 6.9 mph11.1 kmh 25.07 in849.0 mb 0.00 in0.0 mm 0.00 in0.0 mm 0.00 in0.0 mm
12:22 AM 81.0°F27.2°C -5537.2°C - 4.0 mph E6.4 kmh E 6.7 mph10.8 kmh 25.07 in849.0 mb 0.00 in0.0 mm 0.00 in0.0 mm 0.00 in0.0 mm
12:27 AM 79.2°F26.2°C -5537.2°C - 5.0 mph E8.0 kmh E 11.6 mph18.7 kmh 25.07 in849.0 mb 0.00 in0.0 mm 0.00 in0.0 mm 0.00 in0.0 mm
12:32 AM 79.2°F26.2°C -5537.2°C - 6.0 mph E9.7 kmh E 8.3 mph13.4 kmh 25.07 in849.0 mb 0.00 in0.0 mm 0.00 in0.0 mm 0.00 in0.0 mm
12:37 AM 80.4°F26.9°C -5537.2°C - 5.0 mph E8.0 kmh E 9.2 mph14.8 kmh 25.07 in849.0 mb 0.00 in0.0 mm 0.00 in0.0 mm 0.00 in0.0 mm
12:43 AM 80.6°F27.0°C -5537.2°C - 5.0 mph E8.0 kmh E 8.3 mph13.4 kmh 25.07 in849.0 mb 0.00 in0.0 mm 0.00 in0.0 mm 0.00 in0.0 mm
12:48 AM 79.9°F26.6°C -5537.2°C - 4.0 mph E6.4 kmh E 4.9 mph7.9 kmh 25.07 in849.0 mb 0.00 in0.0 mm 0.00 in0.0 mm 0.00 in0.0 mm
12:53 AM 77.7°F25.4°C -5537.2°C - 3.0 mph E4.8 kmh E 5.8 mph9.3 kmh 25.07 in849.0 mb 0.00 in0.0 mm 0.00 in0.0 mm 0.00 in0.0 mm
12:58 AM 76.8°F24.9°C -5537.2°C - 4.0 mph E6.4 kmh E 6.7 mph10.8 kmh 25.07 in849.0 mb 0.00 in0.0 mm 0.00 in0.0 mm 0.00 in0.0 mm
01:03 AM 76.6°F24.8°C -5537.2°C - 4.0 mph E6.4 kmh E 5.8 mph9.3 kmh 25.07 in849.0 mb 0.00 in0.0 mm 0.00 in0.0 mm 0.00 in0.0 mm
01:08 AM 76.5°F24.7°C -5537.2°C - 3.0 mph E4.8 kmh E 6.9 mph11.1 kmh 25.07 in849.0 mb 0.00 in0.0 mm 0.00 in0.0 mm 0.00 in0.0 mm
01:13 AM 76.5°F24.7°C -5537.2°C - 2.0 mph E3.2 kmh E 3.6 mph5.8 kmh 25.07 in849.0 mb 0.00 in0.0 mm 0.00 in0.0 mm 0.00 in0.0 mm
01:18 AM 76.1°F24.5°C -5537.2°C - 1.0 mph E1.6 kmh E 3.1 mph5.0 kmh 25.07 in849.0 mb 0.00 in0.0 mm 0.00 in0.0 mm 0.00 in0.0 mm
01:23 AM 76.3°F24.6°C -5537.2°C - Calm Calm 2.7 mph4.3 kmh 25.07 in849.0 mb 0.00 in0.0 mm 0.00 in0.0 mm 0.00 in0.0 mm
01:28 AM 76.6°F24.8°C -5537.2°C - 1.0 mph E1.6 kmh E 3.1 mph5.0 kmh 25.07 in849.0 mb 0.00 in0.0 mm 0.00 in0.0 mm 0.00 in0.0 mm
01:33 AM 77.2°F25.1°C -5537.2°C - Calm Calm -- 25.07 in849.0 mb 0.00 in0.0 mm 0.00 in0.0 mm 0.00 in0.0 mm
01:38 AM 77.5°F25.3°C -5537.2°C - 1.0 mph E1.6 kmh E 6.3 mph10.1 kmh 25.07 in849.0 mb 0.00 in0.0 mm 0.00 in0.0 mm 0.00 in0.0 mm
01:43 AM 77.5°F25.3°C -5537.2°C - 2.0 mph E3.2 kmh E 5.4 mph8.7 kmh 25.07 in849.0 mb 0.00 in0.0 mm 0.00 in0.0 mm 0.00 in0.0 mm
01:48 AM 78.3°F25.7°C -5537.2°C - 4.0 mph E6.4 kmh E 8.3 mph13.4 kmh 25.07 in849.0 mb 0.00 in0.0 mm 0.00 in0.0 mm 0.00 in0.0 mm
01:53 AM 78.6°F25.9°C -5537.2°C - 5.0 mph E8.0 kmh E 8.3 mph13.4 kmh 25.07 in849.0 mb 0.00 in0.0 mm 0.00 in0.0 mm 0.00 in0.0 mm
01:58 AM 78.8°F26.0°C -5537.2°C - 5.0 mph E8.0 kmh E 9.2 mph14.8 kmh 25.07 in849.0 mb 0.00 in0.0 mm 0.00 in0.0 mm 0.00 in0.0 mm
02:03 AM 78.6°F25.9°C -5537.2°C - 5.0 mph E8.0 kmh E 7.4 mph11.9 kmh 25.07 in849.0 mb 0.00 in0.0 mm 0.00 in0.0 mm 0.00 in0.0 mm
02:08 AM 77.9°F25.5°C -5537.2°C - 2.0 mph E3.2 kmh E 4.0 mph6.4 kmh 25.07 in849.0 mb 0.00 in0.0 mm 0.00 in0.0 mm 0.00 in0.0 mm
02:13 AM 77.0°F25.0°C -5537.2°C - 1.0 mph E1.6 kmh E 3.6 mph5.8 kmh 25.07 in849.0 mb 0.00 in0.0 mm 0.00 in0.0 mm 0.00 in0.0 mm
02:18 AM 76.8°F24.9°C -5537.2°C - 1.0 mph E1.6 kmh E 4.0 mph6.4 kmh 25.07 in849.0 mb 0.00 in0.0 mm 0.00 in0.0 mm 0.00 in0.0 mm
02:23 AM 77.0°F25.0°C -5537.2°C - Calm Calm 4.5 mph7.2 kmh 25.07 in849.0 mb 0.00 in0.0 mm 0.00 in0.0 mm 0.00 in0.0 mm
02:28 AM 76.8°F24.9°C -5537.2°C - Calm Calm 2.7 mph4.3 kmh 25.07 in849.0 mb 0.00 in0.0 mm 0.00 in0.0 mm 0.00 in0.0 mm
02:33 AM 77.0°F25.0°C -5537.2°C - Calm Calm 3.6 mph5.8 kmh 25.07 in849.0 mb 0.00 in0.0 mm 0.00 in0.0 mm 0.00 in0.0 mm
02:38 AM 77.2°F25.1°C -5537.2°C - 1.0 mph E1.6 kmh E 6.3 mph10.1 kmh 25.07 in849.0 mb 0.00 in0.0 mm 0.00 in0.0 mm 0.00 in0.0 mm
02:43 AM 77.5°F25.3°C -5537.2°C - 2.0 mph E3.2 kmh E 6.9 mph11.1 kmh 25.07 in849.0 mb 0.00 in0.0 mm 0.00 in0.0 mm 0.00 in0.0 mm
02:48 AM 77.5°F25.3°C -5537.2°C - 1.0 mph E1.6 kmh E 3.6 mph5.8 kmh 25.07 in849.0 mb 0.00 in0.0 mm 0.00 in0.0 mm 0.00 in0.0 mm
02:53 AM 77.4°F25.2°C -5537.2°C - Calm Calm 3.6 mph5.8 kmh 25.07 in849.0 mb 0.00 in0.0 mm 0.00 in0.0 mm 0.00 in0.0 mm
02:58 AM 77.5°F25.3°C -5537.2°C - Calm Calm 3.1 mph5.0 kmh 25.07 in849.0 mb 0.00 in0.0 mm 0.00 in0.0 mm 0.00 in0.0 mm
03:03 AM 77.4°F25.2°C -5537.2°C - Calm Calm 2.7 mph4.3 kmh 25.07 in849.0 mb 0.00 in0.0 mm 0.00 in0.0 mm 0.00 in0.0 mm
03:08 AM 77.0°F25.0°C -5537.2°C - Calm Calm 2.7 mph4.3 kmh 25.07 in849.0 mb 0.00 in0.0 mm 0.00 in0.0 mm 0.00 in0.0 mm
03:13 AM 76.8°F24.9°C -5537.2°C - Calm Calm 2.7 mph4.3 kmh 25.07 in849.0 mb 0.00 in0.0 mm 0.00 in0.0 mm 0.00 in0.0 mm
03:18 AM 76.8°F24.9°C -5537.2°C - Calm Calm 3.6 mph5.8 kmh 25.07 in849.0 mb 0.00 in0.0 mm 0.00 in0.0 mm 0.00 in0.0 mm
03:23 AM 76.8°F24.9°C -5537.2°C - Calm Calm 4.0 mph6.4 kmh 25.07 in849.0 mb 0.00 in0.0 mm 0.00 in0.0 mm 0.00 in0.0 mm
03:28 AM 76.6°F24.8°C -5537.2°C - Calm Calm 3.6 mph5.8 kmh 25.07 in849.0 mb 0.00 in0.0 mm 0.00 in0.0 mm 0.00 in0.0 mm
03:33 AM 76.5°F24.7°C -5537.2°C - Calm Calm 3.6 mph5.8 kmh 25.07 in849.0 mb 0.00 in0.0 mm 0.00 in0.0 mm 0.00 in0.0 mm
03:38 AM 76.5°F24.7°C -5537.2°C - Calm Calm 3.6 mph5.8 kmh 25.07 in849.0 mb 0.00 in0.0 mm 0.00 in0.0 mm 0.00 in0.0 mm
03:43 AM 75.7°F24.3°C -5537.2°C - 1.0 mph E1.6 kmh E 4.9 mph7.9 kmh 25.07 in849.0 mb 0.00 in0.0 mm 0.00 in0.0 mm 0.00 in0.0 mm
03:48 AM 75.0°F23.9°C -5537.2°C - Calm Calm 3.6 mph5.8 kmh 25.07 in849.0 mb 0.00 in0.0 mm 0.00 in0.0 mm 0.00 in0.0 mm
03:53 AM 75.6°F24.2°C -5537.2°C - 2.0 mph E3.2 kmh E 6.7 mph10.8 kmh 25.07 in849.0 mb 0.00 in0.0 mm 0.00 in0.0 mm 0.00 in0.0 mm
03:58 AM 74.1°F23.4°C -5537.2°C - 4.0 mph E6.4 kmh E 5.8 mph9.3 kmh 25.07 in849.0 mb 0.00 in0.0 mm 0.00 in0.0 mm 0.00 in0.0 mm
04:03 AM 73.6°F23.1°C -5537.2°C - 3.0 mph E4.8 kmh E 4.9 mph7.9 kmh 25.07 in849.0 mb 0.00 in0.0 mm 0.00 in0.0 mm 0.00 in0.0 mm
04:08 AM 73.4°F23.0°C -5537.2°C - 2.0 mph E3.2 kmh E 4.5 mph7.2 kmh 25.07 in849.0 mb 0.00 in0.0 mm 0.00 in0.0 mm 0.00 in0.0 mm
04:13 AM 73.6°F23.1°C -5537.2°C - 2.0 mph E3.2 kmh E 5.8 mph9.3 kmh 25.07 in849.0 mb 0.00 in0.0 mm 0.00 in0.0 mm 0.00 in0.0 mm
04:18 AM 75.0°F23.9°C -5537.2°C - 3.0 mph E4.8 kmh E 6.9 mph11.1 kmh 25.07 in849.0 mb 0.00 in0.0 mm 0.00 in0.0 mm 0.00 in0.0 mm
04:23 AM 75.2°F24.0°C -5537.2°C - 4.0 mph E6.4 kmh E 5.8 mph9.3 kmh 25.07 in849.0 mb 0.00 in0.0 mm 0.00 in0.0 mm 0.00 in0.0 mm
04:28 AM 74.7°F23.7°C -5537.2°C - 4.0 mph E6.4 kmh E 6.3 mph10.1 kmh 25.07 in849.0 mb 0.00 in0.0 mm 0.00 in0.0 mm 0.00 in0.0 mm
04:33 AM 74.1°F23.4°C -5537.2°C - 4.0 mph E6.4 kmh E 5.4 mph8.7 kmh 25.07 in849.0 mb 0.00 in0.0 mm 0.00 in0.0 mm 0.00 in0.0 mm
04:38 AM 74.3°F23.5°C -5537.2°C - 3.0 mph E4.8 kmh E 4.9 mph7.9 kmh 25.07 in849.0 mb 0.00 in0.0 mm 0.00 in0.0 mm 0.00 in0.0 mm
04:43 AM 73.4°F23.0°C -5537.2°C - 3.0 mph E4.8 kmh E 4.9 mph7.9 kmh 25.07 in849.0 mb 0.00 in0.0 mm 0.00 in0.0 mm 0.00 in0.0 mm
04:48 AM 72.0°F22.2°C -5537.2°C - 2.0 mph E3.2 kmh E 5.4 mph8.7 kmh 25.07 in849.0 mb 0.00 in0.0 mm 0.00 in0.0 mm 0.00 in0.0 mm
04:53 AM 71.4°F21.9°C -5537.2°C - 1.0 mph E1.6 kmh E 4.0 mph6.4 kmh 25.07 in849.0 mb 0.00 in0.0 mm 0.00 in0.0 mm 0.00 in0.0 mm
04:58 AM 72.1°F22.3°C -5537.2°C - 1.0 mph E1.6 kmh E 3.1 mph5.0 kmh 25.07 in849.0 mb 0.00 in0.0 mm 0.00 in0.0 mm 0.00 in0.0 mm
05:03 AM 72.1°F22.3°C -5537.2°C - Calm Calm 3.1 mph5.0 kmh 25.07 in849.0 mb 0.00 in0.0 mm 0.00 in0.0 mm 0.00 in0.0 mm
05:08 AM 72.3°F22.4°C -5537.2°C - Calm Calm 3.6 mph5.8 kmh 25.07 in849.0 mb 0.00 in0.0 mm 0.00 in0.0 mm 0.00 in0.0 mm
05:13 AM 73.4°F23.0°C -5537.2°C - 2.0 mph E3.2 kmh E 4.5 mph7.2 kmh 25.07 in849.0 mb 0.00 in0.0 mm 0.00 in0.0 mm 0.00 in0.0 mm
05:18 AM 73.8°F23.2°C -5537.2°C - 3.0 mph E4.8 kmh E 4.9 mph7.9 kmh 25.07 in849.0 mb 0.00 in0.0 mm 0.00 in0.0 mm 0.00 in0.0 mm
05:23 AM 73.4°F23.0°C -5537.2°C - 3.0 mph E4.8 kmh E 4.0 mph6.4 kmh 25.07 in849.0 mb 0.00 in0.0 mm 0.00 in0.0 mm 0.00 in0.0 mm
05:28 AM 71.8°F22.1°C -5537.2°C - 2.0 mph E3.2 kmh E 4.0 mph6.4 kmh 25.07 in849.0 mb 0.00 in0.0 mm 0.00 in0.0 mm 0.00 in0.0 mm
05:33 AM 70.3°F21.3°C -5537.2°C - 1.0 mph E1.6 kmh E 3.1 mph5.0 kmh 25.07 in849.0 mb 0.00 in0.0 mm 0.00 in0.0 mm 0.00 in0.0 mm
05:38 AM 70.0°F21.1°C -5537.2°C - Calm Calm -- 25.07 in849.0 mb 0.00 in0.0 mm 0.00 in0.0 mm 0.00 in0.0 mm
05:43 AM 69.4°F20.8°C -5537.2°C - Calm Calm 3.1 mph5.0 kmh 25.07 in849.0 mb 0.00 in0.0 mm 0.00 in0.0 mm 0.00 in0.0 mm
05:48 AM 69.3°F20.7°C -5537.2°C - Calm Calm 3.6 mph5.8 kmh 25.07 in849.0 mb 0.00 in0.0 mm 0.00 in0.0 mm 0.00 in0.0 mm
05:53 AM 69.8°F21.0°C -5537.2°C - 1.0 mph E1.6 kmh E 5.8 mph9.3 kmh 25.07 in849.0 mb 0.00 in0.0 mm 0.00 in0.0 mm 0.00 in0.0 mm
05:58 AM 70.3°F21.3°C -5537.2°C - 4.0 mph E6.4 kmh E 9.2 mph14.8 kmh 25.07 in849.0 mb 0.00 in0.0 mm 0.00 in0.0 mm 0.00 in0.0 mm
06:03 AM 68.0°F20.0°C 13.5°F-10.3°C 12% 6.0 mph E9.7 kmh E 10.1 mph16.3 kmh 25.07 in849.0 mb 0.00 in0.0 mm 0.00 in0.0 mm 0.00 in0.0 mm
06:08 AM 66.9°F19.4°C 27.9°F-2.3°C 23% 6.0 mph E9.7 kmh E 7.4 mph11.9 kmh 25.07 in849.0 mb 0.00 in0.0 mm 0.00 in0.0 mm 0.00 in0.0 mm
06:13 AM 66.4°F19.1°C 28.6°F-1.9°C 24% 5.0 mph E8.0 kmh E 7.8 mph12.6 kmh 25.07 in849.0 mb 0.00 in0.0 mm 0.00 in0.0 mm 0.00 in0.0 mm
06:18 AM 66.0°F18.9°C 29.1°F-1.6°C 25% 2.0 mph E3.2 kmh E 3.1 mph5.0 kmh 25.07 in849.0 mb 0.00 in0.0 mm 0.00 in0.0 mm 0.00 in0.0 mm
06:23 AM 66.2°F19.0°C 30.4°F-0.9°C 26% Calm Calm -- 25.07 in849.0 mb 0.00 in0.0 mm 0.00 in0.0 mm 0.00 in0.0 mm
06:28 AM 66.7°F19.3°C 28.8°F-1.8°C 24% Calm Calm 3.6 mph5.8 kmh 25.07 in849.0 mb 0.00 in0.0 mm 0.00 in0.0 mm 0.00 in0.0 mm
06:33 AM 66.9°F19.4°C 27.9°F-2.3°C 23% 1.0 mph E1.6 kmh E 3.6 mph5.8 kmh 25.07 in849.0 mb 0.00 in0.0 mm 0.00 in0.0 mm 0.00 in0.0 mm
06:38 AM 67.5°F19.7°C 28.4°F-2.0°C 23% 1.0 mph E1.6 kmh E 3.6 mph5.8 kmh 25.07 in849.0 mb 0.00 in0.0 mm 0.00 in0.0 mm 0.00 in0.0 mm
06:43 AM 67.5°F19.7°C 28.4°F-2.0°C 23% Calm Calm -- 25.07 in849.0 mb 0.00 in0.0 mm 0.00 in0.0 mm 0.00 in0.0 mm
06:48 AM 67.5°F19.7°C 28.4°F-2.0°C 23% Calm Calm -- 25.07 in849.0 mb 0.00 in0.0 mm 0.00 in0.0 mm 0.00 in0.0 mm
06:53 AM 67.6°F19.8°C 28.6°F-1.9°C 23% Calm Calm -- 25.07 in849.0 mb 0.00 in0.0 mm 0.00 in0.0 mm 0.00 in0.0 mm
06:58 AM 68.2°F20.1°C 27.9°F-2.3°C 22% Calm Calm 4.0 mph6.4 kmh 25.07 in849.0 mb 0.00 in0.0 mm 0.00 in0.0 mm 0.00 in0.0 mm
07:03 AM 69.6°F20.9°C 29.1°F-1.6°C 22% 2.0 mph E3.2 kmh E 4.9 mph7.9 kmh 25.07 in849.0 mb 0.00 in0.0 mm 0.00 in0.0 mm 0.00 in0.0 mm
07:08 AM 71.4°F21.9°C 27.0°F-2.8°C 19% 2.0 mph E3.2 kmh E 4.0 mph6.4 kmh 25.07 in849.0 mb 0.00 in0.0 mm 0.00 in0.0 mm 0.00 in0.0 mm
07:14 AM 72.7°F22.6°C 19.0°F-7.2°C 13% 1.0 mph E1.6 kmh E 3.6 mph5.8 kmh 25.07 in849.0 mb 0.00 in0.0 mm 0.00 in0.0 mm 0.00 in0.0 mm
07:19 AM 74.5°F23.6°C -5537.2°C - 1.0 mph E1.6 kmh E 3.6 mph5.8 kmh 25.07 in849.0 mb 0.00 in0.0 mm 0.00 in0.0 mm 0.00 in0.0 mm
07:24 AM 75.7°F24.3°C -5537.2°C - 2.0 mph E3.2 kmh E 4.9 mph7.9 kmh 25.07 in849.0 mb 0.00 in0.0 mm 0.00 in0.0 mm 0.00 in0.0 mm
07:29 AM 76.3°F24.6°C -5537.2°C - 2.0 mph E3.2 kmh E 5.4 mph8.7 kmh 25.10 in850.0 mb 0.00 in0.0 mm 0.00 in0.0 mm 0.00 in0.0 mm
07:34 AM 75.7°F24.3°C -5537.2°C - 3.0 mph E4.8 kmh E 6.3 mph10.1 kmh 25.10 in850.0 mb 0.00 in0.0 mm 0.00 in0.0 mm 0.00 in0.0 mm
07:39 AM 75.7°F24.3°C -5537.2°C - 4.0 mph E6.4 kmh E 6.7 mph10.8 kmh 25.10 in850.0 mb 0.00 in0.0 mm 0.00 in0.0 mm 0.00 in0.0 mm
07:44 AM 75.6°F24.2°C -5537.2°C - 5.0 mph E8.0 kmh E 9.2 mph14.8 kmh 25.10 in850.0 mb 0.00 in0.0 mm 0.00 in0.0 mm 0.00 in0.0 mm
07:49 AM 75.9°F24.4°C -5537.2°C - 5.0 mph E8.0 kmh E 7.4 mph11.9 kmh 25.10 in850.0 mb 0.00 in0.0 mm 0.00 in0.0 mm 0.00 in0.0 mm
07:54 AM 76.5°F24.7°C -5537.2°C - 6.0 mph E9.7 kmh E 10.1 mph16.3 kmh 25.10 in850.0 mb 0.00 in0.0 mm 0.00 in0.0 mm 0.00 in0.0 mm
07:59 AM 77.0°F25.0°C -5537.2°C - 7.0 mph E11.3 kmh E 11.6 mph18.7 kmh 25.10 in850.0 mb 0.00 in0.0 mm 0.00 in0.0 mm 0.00 in0.0 mm
08:04 AM 77.5°F25.3°C -5537.2°C - 6.0 mph E9.7 kmh E 10.5 mph16.9 kmh 25.10 in850.0 mb 0.00 in0.0 mm 0.00 in0.0 mm 0.00 in0.0 mm
08:09 AM 78.1°F25.6°C -5537.2°C - 7.0 mph E11.3 kmh E 12.5 mph20.1 kmh 25.10 in850.0 mb 0.00 in0.0 mm 0.00 in0.0 mm 0.00 in0.0 mm
08:14 AM 78.1°F25.6°C -5537.2°C - 8.0 mph E12.9 kmh E 10.5 mph16.9 kmh 25.10 in850.0 mb 0.00 in0.0 mm 0.00 in0.0 mm 0.00 in0.0 mm
08:19 AM 78.8°F26.0°C -5537.2°C - 7.0 mph E11.3 kmh E 11.0 mph17.7 kmh 25.10 in850.0 mb 0.00 in0.0 mm 0.00 in0.0 mm 0.00 in0.0 mm
08:24 AM 79.0°F26.1°C -5537.2°C - 7.0 mph E11.3 kmh E 10.1 mph16.3 kmh 25.10 in850.0 mb 0.00 in0.0 mm 0.00 in0.0 mm 0.00 in0.0 mm
08:29 AM 78.8°F26.0°C -5537.2°C - 6.0 mph E9.7 kmh E 9.2 mph14.8 kmh 25.10 in850.0 mb 0.00 in0.0 mm 0.00 in0.0 mm 0.00 in0.0 mm
08:34 AM 79.3°F26.3°C -5537.2°C - 6.0 mph E9.7 kmh E 9.6 mph15.4 kmh 25.10 in850.0 mb 0.00 in0.0 mm 0.00 in0.0 mm 0.00 in0.0 mm
08:39 AM 79.3°F26.3°C -5537.2°C - 6.0 mph E9.7 kmh E 10.5 mph16.9 kmh 25.10 in850.0 mb 0.00 in0.0 mm 0.00 in0.0 mm 0.00 in0.0 mm
08:44 AM 80.2°F26.8°C -5537.2°C - 6.0 mph E9.7 kmh E 9.2 mph14.8 kmh 25.10 in850.0 mb 0.00 in0.0 mm 0.00 in0.0 mm 0.00 in0.0 mm
08:49 AM 81.5°F27.5°C -5537.2°C - 5.0 mph E8.0 kmh E 6.7 mph10.8 kmh 25.10 in850.0 mb 0.00 in0.0 mm 0.00 in0.0 mm 0.00 in0.0 mm
08:54 AM 80.8°F27.1°C -5537.2°C - 4.0 mph E6.4 kmh E 7.4 mph11.9 kmh 25.10 in850.0 mb 0.00 in0.0 mm 0.00 in0.0 mm 0.00 in0.0 mm
08:59 AM 82.0°F27.8°C -5537.2°C - 4.0 mph E6.4 kmh E 6.9 mph11.1 kmh 25.10 in850.0 mb 0.00 in0.0 mm 0.00 in0.0 mm 0.00 in0.0 mm
09:04 AM 81.9°F27.7°C -5537.2°C - 4.0 mph E6.4 kmh E 7.8 mph12.6 kmh 25.10 in850.0 mb 0.00 in0.0 mm 0.00 in0.0 mm 0.00 in0.0 mm
09:09 AM 82.6°F28.1°C -5537.2°C - 4.0 mph E6.4 kmh E 6.9 mph11.1 kmh 25.10 in850.0 mb 0.00 in0.0 mm 0.00 in0.0 mm 0.00 in0.0 mm
09:14 AM 83.1°F28.4°C -5537.2°C - 4.0 mph E6.4 kmh E 8.3 mph13.4 kmh 25.10 in850.0 mb 0.00 in0.0 mm 0.00 in0.0 mm 0.00 in0.0 mm
09:19 AM 84.6°F29.2°C -5537.2°C - 4.0 mph E6.4 kmh E 7.8 mph12.6 kmh 25.10 in850.0 mb 0.00 in0.0 mm 0.00 in0.0 mm 0.00 in0.0 mm
09:24 AM 84.4°F29.1°C -5537.2°C - 3.0 mph E4.8 kmh E 5.8 mph9.3 kmh 25.10 in850.0 mb 0.00 in0.0 mm 0.00 in0.0 mm 0.00 in0.0 mm
09:29 AM 85.1°F29.5°C -5537.2°C - 2.0 mph ENE3.2 kmh ENE 6.3 mph10.1 kmh 25.10 in850.0 mb 0.00 in0.0 mm 0.00 in0.0 mm 0.00 in0.0 mm
09:34 AM 84.6°F29.2°C -5537.2°C - 3.0 mph ENE4.8 kmh ENE 7.4 mph11.9 kmh 25.10 in850.0 mb 0.00 in0.0 mm 0.00 in0.0 mm 0.00 in0.0 mm
09:39 AM 85.1°F29.5°C -5537.2°C - 4.0 mph ENE6.4 kmh ENE 7.8 mph12.6 kmh 25.10 in850.0 mb 0.00 in0.0 mm 0.00 in0.0 mm 0.00 in0.0 mm
09:44 AM 85.5°F29.7°C -5537.2°C - 5.0 mph ENE8.0 kmh ENE 8.7 mph14.0 kmh 25.10 in850.0 mb 0.00 in0.0 mm 0.00 in0.0 mm 0.00 in0.0 mm
09:49 AM 85.5°F29.7°C -5537.2°C - 6.0 mph ENE9.7 kmh ENE 9.6 mph15.4 kmh 25.10 in850.0 mb 0.00 in0.0 mm 0.00 in0.0 mm 0.00 in0.0 mm
09:54 AM 85.8°F29.9°C -5537.2°C - 6.0 mph ENE9.7 kmh ENE 12.5 mph20.1 kmh 25.10 in850.0 mb 0.00 in0.0 mm 0.00 in0.0 mm 0.00 in0.0 mm
09:59 AM 85.5°F29.7°C -5537.2°C - 8.0 mph E12.9 kmh E 13.4 mph21.6 kmh 25.10 in850.0 mb 0.00 in0.0 mm 0.00 in0.0 mm 0.00 in0.0 mm
10:04 AM 85.8°F29.9°C -5537.2°C - 9.0 mph E14.5 kmh E 12.5 mph20.1 kmh 25.10 in850.0 mb 0.00 in0.0 mm 0.00 in0.0 mm 0.00 in0.0 mm
10:09 AM 86.7°F30.4°C -5537.2°C - 9.0 mph E14.5 kmh E 13.0 mph20.9 kmh 25.10 in850.0 mb 0.00 in0.0 mm 0.00 in0.0 mm 0.00 in0.0 mm
10:14 AM 86.7°F30.4°C -5537.2°C - 9.0 mph E14.5 kmh E 13.9 mph22.4 kmh 25.07 in849.0 mb 0.00 in0.0 mm 0.00 in0.0 mm 0.00 in0.0 mm
10:19 AM 86.9°F30.5°C -5537.2°C - 8.0 mph E12.9 kmh E 12.5 mph20.1 kmh 25.07 in849.0 mb 0.00 in0.0 mm 0.00 in0.0 mm 0.00 in0.0 mm
10:24 AM 87.1°F30.6°C -5537.2°C - 7.0 mph E11.3 kmh E 11.6 mph18.7 kmh 25.07 in849.0 mb 0.00 in0.0 mm 0.00 in0.0 mm 0.00 in0.0 mm
10:29 AM 87.3°F30.7°C -5537.2°C - 7.0 mph E11.3 kmh E 9.6 mph15.4 kmh 25.07 in849.0 mb 0.00 in0.0 mm 0.00 in0.0 mm 0.00 in0.0 mm
10:34 AM 87.1°F30.6°C -5537.2°C - 7.0 mph E11.3 kmh E 11.6 mph18.7 kmh 25.07 in849.0 mb 0.00 in0.0 mm 0.00 in0.0 mm 0.00 in0.0 mm
10:39 AM 88.3°F31.3°C -5537.2°C - 7.0 mph E11.3 kmh E 10.5 mph16.9 kmh 25.07 in849.0 mb 0.00 in0.0 mm 0.00 in0.0 mm 0.00 in0.0 mm
10:44 AM 88.2°F31.2°C -5537.2°C - 7.0 mph E11.3 kmh E 11.2 mph18.0 kmh 25.07 in849.0 mb 0.00 in0.0 mm 0.00 in0.0 mm 0.00 in0.0 mm
10:49 AM 88.9°F31.6°C -5537.2°C - 6.0 mph E9.7 kmh E 9.6 mph15.4 kmh 25.07 in849.0 mb 0.00 in0.0 mm 0.00 in0.0 mm 0.00 in0.0 mm
10:54 AM 88.9°F31.6°C -5537.2°C - 7.0 mph E11.3 kmh E 10.5 mph16.9 kmh 25.07 in849.0 mb 0.00 in0.0 mm 0.00 in0.0 mm 0.00 in0.0 mm
10:59 AM 88.7°F31.5°C -5537.2°C - 7.0 mph E11.3 kmh E 10.5 mph16.9 kmh 25.07 in849.0 mb 0.00 in0.0 mm 0.00 in0.0 mm 0.00 in0.0 mm
11:04 AM 88.7°F31.5°C -5537.2°C - 6.0 mph E9.7 kmh E 11.2 mph18.0 kmh 25.07 in849.0 mb 0.00 in0.0 mm 0.00 in0.0 mm 0.00 in0.0 mm
11:09 AM 90.7°F32.6°C -5537.2°C - 6.0 mph E9.7 kmh E 7.8 mph12.6 kmh 25.07 in849.0 mb 0.00 in0.0 mm 0.00 in0.0 mm 0.00 in0.0 mm
11:14 AM 91.2°F32.9°C -5537.2°C - 5.0 mph ENE8.0 kmh ENE 9.2 mph14.8 kmh 25.07 in849.0 mb 0.00 in0.0 mm 0.00 in0.0 mm 0.00 in0.0 mm
11:19 AM 90.1°F32.3°C -5537.2°C - 5.0 mph ENE8.0 kmh ENE 9.2 mph14.8 kmh 25.07 in849.0 mb 0.00 in0.0 mm 0.00 in0.0 mm 0.00 in0.0 mm
11:24 AM 91.2°F32.9°C -5537.2°C - 5.0 mph ENE8.0 kmh ENE 7.8 mph12.6 kmh 25.07 in849.0 mb 0.00 in0.0 mm 0.00 in0.0 mm 0.00 in0.0 mm
11:29 AM 91.9°F33.3°C -5537.2°C - 5.0 mph ENE8.0 kmh ENE 8.7 mph14.0 kmh 25.07 in849.0 mb 0.00 in0.0 mm 0.00 in0.0 mm 0.00 in0.0 mm
11:34 AM 91.2°F32.9°C -5537.2°C - 6.0 mph ENE9.7 kmh ENE 10.1 mph16.3 kmh 25.07 in849.0 mb 0.00 in0.0 mm 0.00 in0.0 mm 0.00 in0.0 mm
11:39 AM 91.4°F33.0°C -5537.2°C - 6.0 mph ENE9.7 kmh ENE 11.0 mph17.7 kmh 25.07 in849.0 mb 0.00 in0.0 mm 0.00 in0.0 mm 0.00 in0.0 mm
11:44 AM 91.2°F32.9°C -5537.2°C - 7.0 mph ENE11.3 kmh ENE 13.4 mph21.6 kmh 25.07 in849.0 mb 0.00 in0.0 mm 0.00 in0.0 mm 0.00 in0.0 mm
11:49 AM 91.9°F33.3°C -5537.2°C - 6.0 mph ENE9.7 kmh ENE 9.6 mph15.4 kmh 25.07 in849.0 mb 0.00 in0.0 mm 0.00 in0.0 mm 0.00 in0.0 mm
11:54 AM 92.5°F33.6°C -5537.2°C - 5.0 mph ENE8.0 kmh ENE 6.9 mph11.1 kmh 25.07 in849.0 mb 0.00 in0.0 mm 0.00 in0.0 mm 0.00 in0.0 mm
11:59 AM 92.5°F33.6°C -5537.2°C - 5.0 mph ENE8.0 kmh ENE 9.2 mph14.8 kmh 25.07 in849.0 mb 0.00 in0.0 mm 0.00 in0.0 mm 0.00 in0.0 mm
12:04 PM 93.4°F34.1°C -5537.2°C - 5.0 mph ENE8.0 kmh ENE 8.7 mph14.0 kmh 25.07 in849.0 mb 0.00 in0.0 mm 0.00 in0.0 mm 0.00 in0.0 mm
12:09 PM 94.1°F34.5°C -5537.2°C - 6.0 mph ENE9.7 kmh ENE 10.5 mph16.9 kmh 25.07 in849.0 mb 0.00 in0.0 mm 0.00 in0.0 mm 0.00 in0.0 mm
12:14 PM 94.8°F34.9°C -5537.2°C - 7.0 mph ENE11.3 kmh ENE 11.2 mph18.0 kmh 25.07 in849.0 mb 0.00 in0.0 mm 0.00 in0.0 mm 0.00 in0.0 mm
12:19 PM 94.3°F34.6°C -5537.2°C - 6.0 mph ENE9.7 kmh ENE 11.0 mph17.7 kmh 25.07 in849.0 mb 0.00 in0.0 mm 0.00 in0.0 mm 0.00 in0.0 mm
12:24 PM 94.1°F34.5°C -5537.2°C - 6.0 mph ENE9.7 kmh ENE 11.6 mph18.7 kmh 25.07 in849.0 mb 0.00 in0.0 mm 0.00 in0.0 mm 0.00 in0.0 mm
12:29 PM 94.5°F34.7°C -5537.2°C - 8.0 mph ENE12.9 kmh ENE 13.4 mph21.6 kmh 25.04 in848.0 mb 0.00 in0.0 mm 0.00 in0.0 mm 0.00 in0.0 mm
12:34 PM 94.8°F34.9°C -5537.2°C - 7.0 mph ENE11.3 kmh ENE 10.1 mph16.3 kmh 25.04 in848.0 mb 0.00 in0.0 mm 0.00 in0.0 mm 0.00 in0.0 mm
12:39 PM 94.3°F34.6°C -5537.2°C - 6.0 mph ENE9.7 kmh ENE 11.2 mph18.0 kmh 25.04 in848.0 mb 0.00 in0.0 mm 0.00 in0.0 mm 0.00 in0.0 mm
12:45 PM 94.8°F34.9°C -5537.2°C - 6.0 mph ENE9.7 kmh ENE 9.2 mph14.8 kmh 25.04 in848.0 mb 0.00 in0.0 mm 0.00 in0.0 mm 0.00 in0.0 mm
12:50 PM 95.5°F35.3°C -5537.2°C - 6.0 mph ENE9.7 kmh ENE 12.5 mph20.1 kmh 25.04 in848.0 mb 0.00 in0.0 mm 0.00 in0.0 mm 0.00 in0.0 mm
12:55 PM 96.1°F35.6°C -5537.2°C - 6.0 mph ENE9.7 kmh ENE 10.1 mph16.3 kmh 25.04 in848.0 mb 0.00 in0.0 mm 0.00 in0.0 mm 0.00 in0.0 mm
01:00 PM 95.4°F35.2°C -5537.2°C - 6.0 mph ENE9.7 kmh ENE 12.1 mph19.5 kmh 25.04 in848.0 mb 0.00 in0.0 mm 0.00 in0.0 mm 0.00 in0.0 mm
01:05 PM 95.9°F35.5°C -5537.2°C - 6.0 mph ENE9.7 kmh ENE 11.0 mph17.7 kmh 25.04 in848.0 mb 0.00 in0.0 mm 0.00 in0.0 mm 0.00 in0.0 mm
01:10 PM 95.2°F35.1°C -5537.2°C - 6.0 mph ENE9.7 kmh ENE 11.2 mph18.0 kmh 25.04 in848.0 mb 0.00 in0.0 mm 0.00 in0.0 mm 0.00 in0.0 mm
01:15 PM 97.7°F36.5°C -5537.2°C - 7.0 mph ENE11.3 kmh ENE 11.6 mph18.7 kmh 25.04 in848.0 mb 0.00 in0.0 mm 0.00 in0.0 mm 0.00 in0.0 mm
01:20 PM 97.0°F36.1°C -5537.2°C - 7.0 mph ENE11.3 kmh ENE 11.2 mph18.0 kmh 25.04 in848.0 mb 0.00 in0.0 mm 0.00 in0.0 mm 0.00 in0.0 mm
01:25 PM 97.3°F36.3°C -5537.2°C - 6.0 mph ENE9.7 kmh ENE 9.2 mph14.8 kmh 25.01 in846.9 mb 0.00 in0.0 mm 0.00 in0.0 mm 0.00 in0.0 mm
01:30 PM 97.9°F36.6°C -5537.2°C - 5.0 mph ENE8.0 kmh ENE 14.8 mph23.8 kmh 25.01 in846.9 mb 0.00 in0.0 mm 0.00 in0.0 mm 0.00 in0.0 mm
01:35 PM 98.1°F36.7°C -5537.2°C - 7.0 mph ENE11.3 kmh ENE 11.6 mph18.7 kmh 25.01 in846.9 mb 0.00 in0.0 mm 0.00 in0.0 mm 0.00 in0.0 mm
01:40 PM 98.1°F36.7°C -5537.2°C - 8.0 mph ENE12.9 kmh ENE 12.5 mph20.1 kmh 25.01 in846.9 mb 0.00 in0.0 mm 0.00 in0.0 mm 0.00 in0.0 mm
01:45 PM 96.8°F36.0°C -5537.2°C - 8.0 mph ENE12.9 kmh ENE 15.4 mph24.8 kmh 25.01 in846.9 mb 0.00 in0.0 mm 0.00 in0.0 mm 0.00 in0.0 mm
01:50 PM 97.5°F36.4°C -5537.2°C - 9.0 mph ENE14.5 kmh ENE 14.3 mph23.0 kmh 25.01 in846.9 mb 0.00 in0.0 mm 0.00 in0.0 mm 0.00 in0.0 mm
01:55 PM 97.7°F36.5°C -5537.2°C - 10.0 mph ENE16.1 kmh ENE 15.9 mph25.6 kmh 25.01 in846.9 mb 0.00 in0.0 mm 0.00 in0.0 mm 0.00 in0.0 mm
02:00 PM 98.2°F36.8°C -5537.2°C - 9.0 mph ENE14.5 kmh ENE 13.0 mph20.9 kmh 25.01 in846.9 mb 0.00 in0.0 mm 0.00 in0.0 mm 0.00 in0.0 mm
02:05 PM 98.1°F36.7°C -5537.2°C - 8.0 mph ENE12.9 kmh ENE 13.9 mph22.4 kmh 25.01 in846.9 mb 0.00 in0.0 mm 0.00 in0.0 mm 0.00 in0.0 mm
02:10 PM 97.9°F36.6°C -5537.2°C - 10.0 mph ENE16.1 kmh ENE 14.3 mph23.0 kmh 24.98 in845.9 mb 0.00 in0.0 mm 0.00 in0.0 mm 0.00 in0.0 mm
02:15 PM 98.2°F36.8°C -5537.2°C - 10.0 mph ENE16.1 kmh ENE 15.9 mph25.6 kmh 24.98 in845.9 mb 0.00 in0.0 mm 0.00 in0.0 mm 0.00 in0.0 mm
02:20 PM 98.1°F36.7°C -5537.2°C - 9.0 mph ENE14.5 kmh ENE 13.4 mph21.6 kmh 24.98 in845.9 mb 0.00 in0.0 mm 0.00 in0.0 mm 0.00 in0.0 mm
02:25 PM 97.9°F36.6°C -5537.2°C - 7.0 mph ENE11.3 kmh ENE 10.5 mph16.9 kmh 24.98 in845.9 mb 0.00 in0.0 mm 0.00 in0.0 mm 0.00 in0.0 mm
02:30 PM 96.8°F36.0°C -5537.2°C - 7.0 mph ENE11.3 kmh ENE 13.4 mph21.6 kmh 24.98 in845.9 mb 0.00 in0.0 mm 0.00 in0.0 mm 0.00 in0.0 mm
02:35 PM 96.3°F35.7°C -5537.2°C - 8.0 mph ENE12.9 kmh ENE 11.6 mph18.7 kmh 24.98 in845.9 mb 0.00 in0.0 mm 0.00 in0.0 mm 0.00 in0.0 mm
02:40 PM 97.7°F36.5°C -5537.2°C - 6.0 mph ENE9.7 kmh ENE 13.4 mph21.6 kmh 24.98 in845.9 mb 0.00 in0.0 mm 0.00 in0.0 mm 0.00 in0.0 mm
02:45 PM 99.1°F37.3°C -5537.2°C - 7.0 mph ENE11.3 kmh ENE 14.3 mph23.0 kmh 24.98 in845.9 mb 0.00 in0.0 mm 0.00 in0.0 mm 0.00 in0.0 mm
02:50 PM 98.2°F36.8°C -5537.2°C - 8.0 mph ENE12.9 kmh ENE 12.1 mph19.5 kmh 24.98 in845.9 mb 0.00 in0.0 mm 0.00 in0.0 mm 0.00 in0.0 mm
02:55 PM 99.9°F37.7°C -5537.2°C - 9.0 mph ENE14.5 kmh ENE 16.3 mph26.2 kmh 24.98 in845.9 mb 0.00 in0.0 mm 0.00 in0.0 mm 0.00 in0.0 mm
03:00 PM 98.1°F36.7°C -5537.2°C - 11.0 mph ENE17.7 kmh ENE 17.2 mph27.7 kmh 24.98 in845.9 mb 0.00 in0.0 mm 0.00 in0.0 mm 0.00 in0.0 mm
03:05 PM 98.6°F37.0°C -5537.2°C - 12.0 mph ENE19.3 kmh ENE 24.2 mph38.9 kmh 24.98 in845.9 mb 0.00 in0.0 mm 0.00 in0.0 mm 0.00 in0.0 mm
03:10 PM 99.5°F37.5°C -5537.2°C - 14.0 mph ENE22.5 kmh ENE 19.5 mph31.4 kmh 24.98 in845.9 mb 0.00 in0.0 mm 0.00 in0.0 mm 0.00 in0.0 mm
03:15 PM 98.4°F36.9°C -5537.2°C - 12.0 mph ENE19.3 kmh ENE 16.8 mph27.0 kmh 24.98 in845.9 mb 0.00 in0.0 mm 0.00 in0.0 mm 0.00 in0.0 mm
03:20 PM 97.9°F36.6°C -5537.2°C - 12.0 mph ENE19.3 kmh ENE 20.1 mph32.3 kmh 24.98 in845.9 mb 0.00 in0.0 mm 0.00 in0.0 mm 0.00 in0.0 mm
03:25 PM 99.1°F37.3°C -5537.2°C - 12.0 mph ENE19.3 kmh ENE 17.7 mph28.5 kmh 24.98 in845.9 mb 0.00 in0.0 mm 0.00 in0.0 mm 0.00 in0.0 mm
03:30 PM 99.3°F37.4°C -5537.2°C - 12.0 mph ENE19.3 kmh ENE 18.6 mph29.9 kmh 24.98 in845.9 mb 0.00 in0.0 mm 0.00 in0.0 mm 0.00 in0.0 mm
03:35 PM 100.4°F38.0°C -5537.2°C - 12.0 mph ENE19.3 kmh ENE 15.4 mph24.8 kmh 24.98 in845.9 mb 0.00 in0.0 mm 0.00 in0.0 mm 0.00 in0.0 mm
03:40 PM 99.9°F37.7°C -5537.2°C - 13.0 mph ENE20.9 kmh ENE 21.9 mph35.2 kmh 24.95 in844.9 mb 0.00 in0.0 mm 0.00 in0.0 mm 0.00 in0.0 mm
03:45 PM 99.1°F37.3°C -5537.2°C - 13.0 mph ENE20.9 kmh ENE 20.6 mph33.2 kmh 24.95 in844.9 mb 0.00 in0.0 mm 0.00 in0.0 mm 0.00 in0.0 mm
03:50 PM 99.1°F37.3°C -5537.2°C - 12.0 mph ENE19.3 kmh ENE 18.1 mph29.1 kmh 24.95 in844.9 mb 0.00 in0.0 mm 0.00 in0.0 mm 0.00 in0.0 mm
03:55 PM 99.0°F37.2°C -5537.2°C - 12.0 mph ENE19.3 kmh ENE 18.6 mph29.9 kmh 24.95 in844.9 mb 0.00 in0.0 mm 0.00 in0.0 mm 0.00 in0.0 mm
04:00 PM 99.1°F37.3°C -5537.2°C - 11.0 mph ENE17.7 kmh ENE 19.5 mph31.4 kmh 24.95 in844.9 mb 0.00 in0.0 mm 0.00 in0.0 mm 0.00 in0.0 mm
04:05 PM 100.6°F38.1°C -5537.2°C - 10.0 mph ENE16.1 kmh ENE 17.2 mph27.7 kmh 24.95 in844.9 mb 0.00 in0.0 mm 0.00 in0.0 mm 0.00 in0.0 mm
04:10 PM 99.3°F37.4°C -5537.2°C - 9.0 mph ENE14.5 kmh ENE 15.2 mph24.5 kmh 24.95 in844.9 mb 0.00 in0.0 mm 0.00 in0.0 mm 0.00 in0.0 mm
04:15 PM 99.0°F37.2°C -5537.2°C - 10.0 mph ENE16.1 kmh ENE 17.2 mph27.7 kmh 24.95 in844.9 mb 0.00 in0.0 mm 0.00 in0.0 mm 0.00 in0.0 mm
04:20 PM 100.4°F38.0°C -5537.2°C - 10.0 mph ENE16.1 kmh ENE 13.9 mph22.4 kmh 24.95 in844.9 mb 0.00 in0.0 mm 0.00 in0.0 mm 0.00 in0.0 mm
04:25 PM 99.5°F37.5°C -5537.2°C - 9.0 mph ENE14.5 kmh ENE 13.0 mph20.9 kmh 24.95 in844.9 mb 0.00 in0.0 mm 0.00 in0.0 mm 0.00 in0.0 mm
04:30 PM 99.9°F37.7°C -5537.2°C - 9.0 mph ENE14.5 kmh ENE 13.0 mph20.9 kmh 24.95 in844.9 mb 0.00 in0.0 mm 0.00 in0.0 mm 0.00 in0.0 mm
04:35 PM 100.2°F37.9°C -5537.2°C - 8.0 mph ENE12.9 kmh ENE 13.0 mph20.9 kmh 24.95 in844.9 mb 0.00 in0.0 mm 0.00 in0.0 mm 0.00 in0.0 mm
04:40 PM 101.3°F38.5°C -5537.2°C - 8.0 mph ENE12.9 kmh ENE 12.5 mph20.1 kmh 24.95 in844.9 mb 0.00 in0.0 mm 0.00 in0.0 mm 0.00 in0.0 mm
04:45 PM 99.5°F37.5°C -5537.2°C - 9.0 mph ENE14.5 kmh ENE 15.4 mph24.8 kmh 24.95 in844.9 mb 0.00 in0.0 mm 0.00 in0.0 mm 0.00 in0.0 mm
04:50 PM 99.1°F37.3°C -5537.2°C - 9.0 mph ENE14.5 kmh ENE 16.3 mph26.2 kmh 24.95 in844.9 mb 0.00 in0.0 mm 0.00 in0.0 mm 0.00 in0.0 mm
04:55 PM 97.9°F36.6°C -5537.2°C - 9.0 mph ENE14.5 kmh ENE 15.2 mph24.5 kmh 24.95 in844.9 mb 0.00 in0.0 mm 0.00 in0.0 mm 0.00 in0.0 mm
05:00 PM 97.3°F36.3°C -5537.2°C - 10.0 mph ENE16.1 kmh ENE 15.2 mph24.5 kmh 24.95 in844.9 mb 0.00 in0.0 mm 0.00 in0.0 mm 0.00 in0.0 mm
05:05 PM 97.3°F36.3°C -5537.2°C - 9.0 mph ENE14.5 kmh ENE 11.6 mph18.7 kmh 24.95 in844.9 mb 0.00 in0.0 mm 0.00 in0.0 mm 0.00 in0.0 mm
05:10 PM 96.8°F36.0°C -5537.2°C - 8.0 mph ENE12.9 kmh ENE 13.0 mph20.9 kmh 24.95 in844.9 mb 0.00 in0.0 mm 0.00 in0.0 mm 0.00 in0.0 mm
05:15 PM 95.9°F35.5°C -5537.2°C - 8.0 mph ENE12.9 kmh ENE 12.5 mph20.1 kmh 24.95 in844.9 mb 0.00 in0.0 mm 0.00 in0.0 mm 0.00 in0.0 mm
05:20 PM 95.5°F35.3°C -5537.2°C - 8.0 mph ENE12.9 kmh ENE 13.0 mph20.9 kmh 24.95 in844.9 mb 0.00 in0.0 mm 0.00 in0.0 mm 0.00 in0.0 mm
05:25 PM 95.9°F35.5°C -5537.2°C - 8.0 mph E12.9 kmh E 11.2 mph18.0 kmh 24.92 in843.9 mb 0.00 in0.0 mm 0.00 in0.0 mm 0.00 in0.0 mm
05:30 PM 96.1°F35.6°C -5537.2°C - 7.0 mph E11.3 kmh E 11.0 mph17.7 kmh 24.92 in843.9 mb 0.00 in0.0 mm 0.00 in0.0 mm 0.00 in0.0 mm
05:35 PM 96.8°F36.0°C -5537.2°C - 7.0 mph E11.3 kmh E 11.0 mph17.7 kmh 24.92 in843.9 mb 0.00 in0.0 mm 0.00 in0.0 mm 0.00 in0.0 mm
05:40 PM 95.4°F35.2°C -5537.2°C - 9.0 mph ENE14.5 kmh ENE 21.5 mph34.6 kmh 24.92 in843.9 mb 0.00 in0.0 mm 0.00 in0.0 mm 0.00 in0.0 mm
05:45 PM 95.0°F35.0°C -5537.2°C - 13.0 mph ENE20.9 kmh ENE 19.5 mph31.4 kmh 24.92 in843.9 mb 0.00 in0.0 mm 0.00 in0.0 mm 0.00 in0.0 mm
05:50 PM 94.5°F34.7°C -5537.2°C - 14.0 mph E22.5 kmh E 18.1 mph29.1 kmh 24.92 in843.9 mb 0.00 in0.0 mm 0.00 in0.0 mm 0.00 in0.0 mm
05:55 PM 95.0°F35.0°C -5537.2°C - 14.0 mph E22.5 kmh E 20.6 mph33.2 kmh 24.95 in844.9 mb 0.00 in0.0 mm 0.00 in0.0 mm 0.00 in0.0 mm
06:00 PM 96.3°F35.7°C -5537.2°C - 11.0 mph E17.7 kmh E 13.9 mph22.4 kmh 24.95 in844.9 mb 0.00 in0.0 mm 0.00 in0.0 mm 0.00 in0.0 mm
06:05 PM 97.2°F36.2°C -5537.2°C - 8.0 mph E12.9 kmh E 11.0 mph17.7 kmh 24.95 in844.9 mb 0.00 in0.0 mm 0.00 in0.0 mm 0.00 in0.0 mm
06:11 PM 96.8°F36.0°C -5537.2°C - 8.0 mph ENE12.9 kmh ENE 13.9 mph22.4 kmh 24.92 in843.9 mb 0.00 in0.0 mm 0.00 in0.0 mm 0.00 in0.0 mm
06:16 PM 95.4°F35.2°C -5537.2°C - 10.0 mph ENE16.1 kmh ENE 15.9 mph25.6 kmh 24.92 in843.9 mb 0.00 in0.0 mm 0.00 in0.0 mm 0.00 in0.0 mm
06:21 PM 95.7°F35.4°C -5537.2°C - 10.0 mph ENE16.1 kmh ENE 14.3 mph23.0 kmh 24.92 in843.9 mb 0.00 in0.0 mm 0.00 in0.0 mm 0.00 in0.0 mm
06:31 PM 94.1°F34.5°C -5537.2°C - 9.0 mph ENE14.5 kmh ENE 15.9 mph25.6 kmh 24.95 in844.9 mb 0.00 in0.0 mm 0.00 in0.0 mm 0.00 in0.0 mm
06:36 PM 95.7°F35.4°C -5537.2°C - 10.0 mph E16.1 kmh E 15.9 mph25.6 kmh 24.95 in844.9 mb 0.00 in0.0 mm 0.00 in0.0 mm 0.00 in0.0 mm
06:41 PM 97.0°F36.1°C -5537.2°C - 10.0 mph E16.1 kmh E 15.2 mph24.5 kmh 24.95 in844.9 mb 0.00 in0.0 mm 0.00 in0.0 mm 0.00 in0.0 mm
06:46 PM 97.2°F36.2°C -5537.2°C - 10.0 mph ENE16.1 kmh ENE 14.3 mph23.0 kmh 24.95 in844.9 mb 0.00 in0.0 mm 0.00 in0.0 mm 0.00 in0.0 mm
06:51 PM 97.2°F36.2°C -5537.2°C - 10.0 mph ENE16.1 kmh ENE 12.5 mph20.1 kmh 24.95 in844.9 mb 0.00 in0.0 mm 0.00 in0.0 mm 0.00 in0.0 mm
06:56 PM 97.3°F36.3°C -5537.2°C - 9.0 mph ENE14.5 kmh ENE 13.0 mph20.9 kmh 24.95 in844.9 mb 0.00 in0.0 mm 0.00 in0.0 mm 0.00 in0.0 mm
07:01 PM 97.3°F36.3°C -5537.2°C - 8.0 mph ENE12.9 kmh ENE 11.6 mph18.7 kmh 24.95 in844.9 mb 0.00 in0.0 mm 0.00 in0.0 mm 0.00 in0.0 mm
07:06 PM 96.8°F36.0°C -5537.2°C - 8.0 mph ENE12.9 kmh ENE 14.3 mph23.0 kmh 24.95 in844.9 mb 0.00 in0.0 mm 0.00 in0.0 mm 0.00 in0.0 mm
07:11 PM 95.2°F35.1°C -5537.2°C - 10.0 mph ENE16.1 kmh ENE 17.2 mph27.7 kmh 24.95 in844.9 mb 0.00 in0.0 mm 0.00 in0.0 mm 0.00 in0.0 mm
07:16 PM 94.6°F34.8°C -5537.2°C - 12.0 mph ENE19.3 kmh ENE 19.5 mph31.4 kmh 24.95 in844.9 mb 0.00 in0.0 mm 0.00 in0.0 mm 0.00 in0.0 mm
07:21 PM 94.3°F34.6°C -5537.2°C - 11.0 mph ENE17.7 kmh ENE 15.2 mph24.5 kmh 24.95 in844.9 mb 0.00 in0.0 mm 0.00 in0.0 mm 0.00 in0.0 mm
07:26 PM 93.9°F34.4°C -5537.2°C - 9.0 mph ENE14.5 kmh ENE 12.5 mph20.1 kmh 24.95 in844.9 mb 0.00 in0.0 mm 0.00 in0.0 mm 0.00 in0.0 mm
07:31 PM 94.1°F34.5°C -5537.2°C - 8.0 mph ENE12.9 kmh ENE 10.5 mph16.9 kmh 24.95 in844.9 mb 0.00 in0.0 mm 0.00 in0.0 mm 0.00 in0.0 mm
07:36 PM 93.6°F34.2°C -5537.2°C - 7.0 mph ENE11.3 kmh ENE 10.1 mph16.3 kmh 24.95 in844.9 mb 0.00 in0.0 mm 0.00 in0.0 mm 0.00 in0.0 mm
07:41 PM 92.8°F33.8°C -5537.2°C - 7.0 mph ENE11.3 kmh ENE 12.1 mph19.5 kmh 24.95 in844.9 mb 0.00 in0.0 mm 0.00 in0.0 mm 0.00 in0.0 mm
07:46 PM 92.1°F33.4°C -5537.2°C - 7.0 mph ENE11.3 kmh ENE 8.3 mph13.4 kmh 24.95 in844.9 mb 0.00 in0.0 mm 0.00 in0.0 mm 0.00 in0.0 mm
07:51 PM 91.8°F33.2°C -5537.2°C - 6.0 mph ENE9.7 kmh ENE 6.9 mph11.1 kmh 24.95 in844.9 mb 0.00 in0.0 mm 0.00 in0.0 mm 0.00 in0.0 mm
07:56 PM 91.6°F33.1°C -5537.2°C - 4.0 mph E6.4 kmh E 5.8 mph9.3 kmh 24.95 in844.9 mb 0.00 in0.0 mm 0.00 in0.0 mm 0.00 in0.0 mm
08:01 PM 91.2°F32.9°C -5537.2°C - 4.0 mph E6.4 kmh E 5.8 mph9.3 kmh 24.95 in844.9 mb 0.00 in0.0 mm 0.00 in0.0 mm 0.00 in0.0 mm
08:06 PM 90.5°F32.5°C -5537.2°C - 4.0 mph E6.4 kmh E 5.4 mph8.7 kmh 24.95 in844.9 mb 0.00 in0.0 mm 0.00 in0.0 mm 0.00 in0.0 mm
08:11 PM 90.0°F32.2°C -5537.2°C - 3.0 mph E4.8 kmh E 4.5 mph7.2 kmh 24.95 in844.9 mb 0.00 in0.0 mm 0.00 in0.0 mm 0.00 in0.0 mm
08:16 PM 89.8°F32.1°C -5537.2°C - 2.0 mph E3.2 kmh E 4.5 mph7.2 kmh 24.95 in844.9 mb 0.00 in0.0 mm 0.00 in0.0 mm 0.00 in0.0 mm
08:21 PM 89.2°F31.8°C -5537.2°C - 2.0 mph E3.2 kmh E 4.5 mph7.2 kmh 24.95 in844.9 mb 0.00 in0.0 mm 0.00 in0.0 mm 0.00 in0.0 mm
08:26 PM 88.7°F31.5°C -5537.2°C - 1.0 mph E1.6 kmh E 2.7 mph4.3 kmh 24.95 in844.9 mb 0.00 in0.0 mm 0.00 in0.0 mm 0.00 in0.0 mm
08:31 PM 88.0°F31.1°C -5537.2°C - Calm Calm 2.7 mph4.3 kmh 24.95 in844.9 mb 0.00 in0.0 mm 0.00 in0.0 mm 0.00 in0.0 mm
08:36 PM 87.6°F30.9°C -5537.2°C - 1.0 mph E1.6 kmh E 4.0 mph6.4 kmh 24.95 in844.9 mb 0.00 in0.0 mm 0.00 in0.0 mm 0.00 in0.0 mm
08:41 PM 87.1°F30.6°C -5537.2°C - 2.0 mph E3.2 kmh E 4.0 mph6.4 kmh 24.95 in844.9 mb 0.00 in0.0 mm 0.00 in0.0 mm 0.00 in0.0 mm
08:46 PM 86.4°F30.2°C -5537.2°C - 1.0 mph E1.6 kmh E 3.1 mph5.0 kmh 24.95 in844.9 mb 0.00 in0.0 mm 0.00 in0.0 mm 0.00 in0.0 mm
08:51 PM 86.0°F30.0°C -5537.2°C - Calm Calm 3.6 mph5.8 kmh 24.95 in844.9 mb 0.00 in0.0 mm 0.00 in0.0 mm 0.00 in0.0 mm
08:56 PM 85.5°F29.7°C -5537.2°C - Calm Calm 3.1 mph5.0 kmh 24.95 in844.9 mb 0.00 in0.0 mm 0.00 in0.0 mm 0.00 in0.0 mm
09:01 PM 85.1°F29.5°C -5537.2°C - 1.0 mph E1.6 kmh E 4.5 mph7.2 kmh 24.95 in844.9 mb 0.00 in0.0 mm 0.00 in0.0 mm 0.00 in0.0 mm
09:06 PM 84.9°F29.4°C -5537.2°C - 2.0 mph ENE3.2 kmh ENE 5.4 mph8.7 kmh 24.95 in844.9 mb 0.00 in0.0 mm 0.00 in0.0 mm 0.00 in0.0 mm
09:11 PM 84.7°F29.3°C -5537.2°C - 2.0 mph ENE3.2 kmh ENE 4.0 mph6.4 kmh 24.95 in844.9 mb 0.00 in0.0 mm 0.00 in0.0 mm 0.00 in0.0 mm
09:16 PM 84.9°F29.4°C -5537.2°C - 2.0 mph ENE3.2 kmh ENE 7.8 mph12.6 kmh 24.95 in844.9 mb 0.00 in0.0 mm 0.00 in0.0 mm 0.00 in0.0 mm
09:21 PM 85.3°F29.6°C -5537.2°C - 3.0 mph E4.8 kmh E 5.8 mph9.3 kmh 24.95 in844.9 mb 0.00 in0.0 mm 0.00 in0.0 mm 0.00 in0.0 mm
09:26 PM 85.3°F29.6°C -5537.2°C - 3.0 mph E4.8 kmh E 5.4 mph8.7 kmh 24.95 in844.9 mb 0.00 in0.0 mm 0.00 in0.0 mm 0.00 in0.0 mm
09:31 PM 86.0°F30.0°C -5537.2°C - 3.0 mph ENE4.8 kmh ENE 4.9 mph7.9 kmh 24.95 in844.9 mb 0.00 in0.0 mm 0.00 in0.0 mm 0.00 in0.0 mm
09:36 PM 85.6°F29.8°C -5537.2°C - 2.0 mph ENE3.2 kmh ENE 3.1 mph5.0 kmh 24.95 in844.9 mb 0.00 in0.0 mm 0.00 in0.0 mm 0.00 in0.0 mm
09:41 PM 85.3°F29.6°C -5537.2°C - 1.0 mph ENE1.6 kmh ENE 3.6 mph5.8 kmh 24.95 in844.9 mb 0.00 in0.0 mm 0.00 in0.0 mm 0.00 in0.0 mm
09:46 PM 85.1°F29.5°C -5537.2°C - 2.0 mph ENE3.2 kmh ENE 4.5 mph7.2 kmh 24.95 in844.9 mb 0.00 in0.0 mm 0.00 in0.0 mm 0.00 in0.0 mm
09:51 PM 85.1°F29.5°C -5537.2°C - 4.0 mph ENE6.4 kmh ENE 5.4 mph8.7 kmh 24.95 in844.9 mb 0.00 in0.0 mm 0.00 in0.0 mm 0.00 in0.0 mm
09:56 PM 84.7°F29.3°C -5537.2°C - 4.0 mph ENE6.4 kmh ENE 6.7 mph10.8 kmh 24.95 in844.9 mb 0.00 in0.0 mm 0.00 in0.0 mm 0.00 in0.0 mm
10:01 PM 85.3°F29.6°C -5537.2°C - 4.0 mph ENE6.4 kmh ENE 6.3 mph10.1 kmh 24.95 in844.9 mb 0.00 in0.0 mm 0.00 in0.0 mm 0.00 in0.0 mm
10:06 PM 84.6°F29.2°C -5537.2°C - 3.0 mph ENE4.8 kmh ENE 4.9 mph7.9 kmh 24.95 in844.9 mb 0.00 in0.0 mm 0.00 in0.0 mm 0.00 in0.0 mm
10:11 PM 84.0°F28.9°C -5537.2°C - 1.0 mph ENE1.6 kmh ENE 3.1 mph5.0 kmh 24.95 in844.9 mb 0.00 in0.0 mm 0.00 in0.0 mm 0.00 in0.0 mm
10:16 PM 82.8°F28.2°C -5537.2°C - 1.0 mph ENE1.6 kmh ENE 4.5 mph7.2 kmh 24.95 in844.9 mb 0.00 in0.0 mm 0.00 in0.0 mm 0.00 in0.0 mm
10:21 PM 82.9°F28.3°C -5537.2°C - 2.0 mph ENE3.2 kmh ENE 3.1 mph5.0 kmh 24.95 in844.9 mb 0.00 in0.0 mm 0.00 in0.0 mm 0.00 in0.0 mm
10:26 PM 83.1°F28.4°C -5537.2°C - Calm Calm 3.1 mph5.0 kmh 24.95 in844.9 mb 0.00 in0.0 mm 0.00 in0.0 mm 0.00 in0.0 mm
10:31 PM 82.4°F28.0°C -5537.2°C - Calm Calm 4.9 mph7.9 kmh 24.95 in844.9 mb 0.00 in0.0 mm 0.00 in0.0 mm 0.00 in0.0 mm
10:36 PM 82.8°F28.2°C -5537.2°C - 1.0 mph ENE1.6 kmh ENE 4.5 mph7.2 kmh 24.95 in844.9 mb 0.00 in0.0 mm 0.00 in0.0 mm 0.00 in0.0 mm
10:41 PM 83.5°F28.6°C -5537.2°C - 2.0 mph ENE3.2 kmh ENE 5.8 mph9.3 kmh 24.95 in844.9 mb 0.00 in0.0 mm 0.00 in0.0 mm 0.00 in0.0 mm
10:46 PM 83.1°F28.4°C -5537.2°C - 2.0 mph ENE3.2 kmh ENE -- 24.95 in844.9 mb 0.00 in0.0 mm 0.00 in0.0 mm 0.00 in0.0 mm
10:51 PM 82.8°F28.2°C -5537.2°C - Calm Calm 5.4 mph8.7 kmh 24.95 in844.9 mb 0.00 in0.0 mm 0.00 in0.0 mm 0.00 in0.0 mm
10:56 PM 82.4°F28.0°C -5537.2°C - Calm Calm -- 24.95 in844.9 mb 0.00 in0.0 mm 0.00 in0.0 mm 0.00 in0.0 mm
11:01 PM 81.9°F27.7°C -5537.2°C - Calm Calm -- 24.95 in844.9 mb 0.00 in0.0 mm 0.00 in0.0 mm 0.00 in0.0 mm
11:06 PM 82.0°F27.8°C -5537.2°C - 1.0 mph ENE1.6 kmh ENE 5.8 mph9.3 kmh 24.95 in844.9 mb 0.00 in0.0 mm 0.00 in0.0 mm 0.00 in0.0 mm
11:11 PM 82.2°F27.9°C -5537.2°C - 2.0 mph ENE3.2 kmh ENE 7.4 mph11.9 kmh 24.95 in844.9 mb 0.00 in0.0 mm 0.00 in0.0 mm 0.00 in0.0 mm
11:16 PM 81.3°F27.4°C -5537.2°C - 3.0 mph E4.8 kmh E 5.8 mph9.3 kmh 24.95 in844.9 mb 0.00 in0.0 mm 0.00 in0.0 mm 0.00 in0.0 mm
11:21 PM 81.9°F27.7°C -5537.2°C - 3.0 mph E4.8 kmh E 4.9 mph7.9 kmh 24.95 in844.9 mb 0.00 in0.0 mm 0.00 in0.0 mm 0.00 in0.0 mm
11:26 PM 81.7°F27.6°C -5537.2°C - 1.0 mph E1.6 kmh E 2.7 mph4.3 kmh 24.95 in844.9 mb 0.00 in0.0 mm 0.00 in0.0 mm 0.00 in0.0 mm
11:31 PM 81.3°F27.4°C -5537.2°C - Calm Calm 3.6 mph5.8 kmh 24.95 in844.9 mb 0.00 in0.0 mm 0.00 in0.0 mm 0.00 in0.0 mm
11:36 PM 80.6°F27.0°C -5537.2°C - 2.0 mph E3.2 kmh E 4.9 mph7.9 kmh 24.95 in844.9 mb 0.00 in0.0 mm 0.00 in0.0 mm 0.00 in0.0 mm
11:41 PM 81.1°F27.3°C -5537.2°C - 4.0 mph E6.4 kmh E 5.8 mph9.3 kmh 24.95 in844.9 mb 0.00 in0.0 mm 0.00 in0.0 mm 0.00 in0.0 mm
11:46 PM 81.7°F27.6°C -5537.2°C - 4.0 mph E6.4 kmh E 4.9 mph7.9 kmh 24.95 in844.9 mb 0.00 in0.0 mm 0.00 in0.0 mm 0.00 in0.0 mm
11:51 PM 82.0°F27.8°C -5537.2°C - 3.0 mph E4.8 kmh E 6.7 mph10.8 kmh 24.95 in844.9 mb 0.00 in0.0 mm 0.00 in0.0 mm 0.00 in0.0 mm
11:56 PM 82.0°F27.8°C -5537.2°C - 3.0 mph ENE4.8 kmh ENE 5.8 mph9.3 kmh 24.95 in844.9 mb 0.00 in0.0 mm 0.00 in0.0 mm 0.00 in0.0 mm